sensor_id;sensor_type;location;lat;lon;timestamp;P1;durP1;ratioP1;P2;durP2;ratioP2
27003;SDS011;14546;47.590;19.022;2023-06-24T00:01:58;17.63;;;12.77;;
27003;SDS011;14546;47.590;19.022;2023-06-24T00:04:24;16.98;;;12.95;;
27003;SDS011;14546;47.590;19.022;2023-06-24T00:06:50;18.17;;;13.88;;
27003;SDS011;14546;47.590;19.022;2023-06-24T00:09:17;17.88;;;13.00;;
27003;SDS011;14546;47.590;19.022;2023-06-24T00:11:43;15.32;;;12.80;;
27003;SDS011;14546;47.590;19.022;2023-06-24T00:14:09;20.67;;;13.45;;
27003;SDS011;14546;47.590;19.022;2023-06-24T00:16:35;16.85;;;12.45;;
27003;SDS011;14546;47.590;19.022;2023-06-24T00:19:01;18.13;;;12.90;;
27003;SDS011;14546;47.590;19.022;2023-06-24T00:21:27;14.27;;;12.75;;
27003;SDS011;14546;47.590;19.022;2023-06-24T00:23:59;16.48;;;11.32;;
27003;SDS011;14546;47.590;19.022;2023-06-24T00:26:31;14.75;;;10.45;;
27003;SDS011;14546;47.590;19.022;2023-06-24T00:28:58;17.00;;;10.70;;
27003;SDS011;14546;47.590;19.022;2023-06-24T00:31:23;17.00;;;11.32;;
27003;SDS011;14546;47.590;19.022;2023-06-24T00:33:49;16.33;;;10.63;;
27003;SDS011;14546;47.590;19.022;2023-06-24T00:36:17;14.80;;;10.88;;
27003;SDS011;14546;47.590;19.022;2023-06-24T00:38:42;13.75;;;9.80;;
27003;SDS011;14546;47.590;19.022;2023-06-24T00:41:08;17.75;;;10.88;;
27003;SDS011;14546;47.590;19.022;2023-06-24T00:43:34;12.48;;;9.93;;
27003;SDS011;14546;47.590;19.022;2023-06-24T00:46:00;13.52;;;10.52;;
27003;SDS011;14546;47.590;19.022;2023-06-24T00:48:27;15.48;;;10.30;;
27003;SDS011;14546;47.590;19.022;2023-06-24T00:50:53;17.33;;;11.07;;
27003;SDS011;14546;47.590;19.022;2023-06-24T00:53:19;17.88;;;11.27;;
27003;SDS011;14546;47.590;19.022;2023-06-24T00:55:50;16.00;;;11.45;;
27003;SDS011;14546;47.590;19.022;2023-06-24T00:58:17;17.05;;;11.55;;
27003;SDS011;14546;47.590;19.022;2023-06-24T01:00:45;15.73;;;12.02;;
27003;SDS011;14546;47.590;19.022;2023-06-24T01:03:13;15.85;;;11.55;;
27003;SDS011;14546;47.590;19.022;2023-06-24T01:05:39;16.63;;;12.70;;
27003;SDS011;14546;47.590;19.022;2023-06-24T01:08:11;15.88;;;12.35;;
27003;SDS011;14546;47.590;19.022;2023-06-24T01:10:40;17.92;;;13.02;;
27003;SDS011;14546;47.590;19.022;2023-06-24T01:13:06;14.85;;;11.98;;
27003;SDS011;14546;47.590;19.022;2023-06-24T01:15:32;18.67;;;11.07;;
27003;SDS011;14546;47.590;19.022;2023-06-24T01:20:29;12.63;;;10.48;;
27003;SDS011;14546;47.590;19.022;2023-06-24T01:25:44;14.45;;;9.65;;
27003;SDS011;14546;47.590;19.022;2023-06-24T01:30:49;11.27;;;10.02;;
27003;SDS011;14546;47.590;19.022;2023-06-24T01:33:47;13.70;;;9.77;;
27003;SDS011;14546;47.590;19.022;2023-06-24T01:36:34;15.38;;;7.93;;
27003;SDS011;14546;47.590;19.022;2023-06-24T01:39:03;14.00;;;8.48;;
27003;SDS011;14546;47.590;19.022;2023-06-24T01:41:34;10.93;;;7.20;;
27003;SDS011;14546;47.590;19.022;2023-06-24T01:44:05;9.20;;;7.10;;
27003;SDS011;14546;47.590;19.022;2023-06-24T01:46:35;7.32;;;6.57;;
27003;SDS011;14546;47.590;19.022;2023-06-24T01:49:02;9.95;;;6.45;;
27003;SDS011;14546;47.590;19.022;2023-06-24T01:51:32;11.02;;;6.18;;
27003;SDS011;14546;47.590;19.022;2023-06-24T01:54:04;10.65;;;5.80;;
27003;SDS011;14546;47.590;19.022;2023-06-24T01:56:33;9.30;;;5.68;;
27003;SDS011;14546;47.590;19.022;2023-06-24T01:59:01;10.63;;;5.50;;
27003;SDS011;14546;47.590;19.022;2023-06-24T02:01:29;10.07;;;5.95;;
27003;SDS011;14546;47.590;19.022;2023-06-24T02:03:58;7.55;;;5.47;;
27003;SDS011;14546;47.590;19.022;2023-06-24T02:06:26;9.68;;;6.13;;
27003;SDS011;14546;47.590;19.022;2023-06-24T02:08:54;7.47;;;6.07;;
27003;SDS011;14546;47.590;19.022;2023-06-24T02:11:23;15.43;;;6.78;;
27003;SDS011;14546;47.590;19.022;2023-06-24T02:13:50;11.15;;;6.15;;
27003;SDS011;14546;47.590;19.022;2023-06-24T02:16:17;16.25;;;7.22;;
27003;SDS011;14546;47.590;19.022;2023-06-24T02:18:45;8.43;;;6.28;;
27003;SDS011;14546;47.590;19.022;2023-06-24T02:21:13;7.47;;;5.78;;
27003;SDS011;14546;47.590;19.022;2023-06-24T02:23:41;7.53;;;5.78;;
27003;SDS011;14546;47.590;19.022;2023-06-24T02:26:07;12.35;;;6.00;;
27003;SDS011;14546;47.590;19.022;2023-06-24T02:28:34;7.85;;;5.60;;
27003;SDS011;14546;47.590;19.022;2023-06-24T02:31:02;6.88;;;5.07;;
27003;SDS011;14546;47.590;19.022;2023-06-24T02:33:29;6.30;;;4.78;;
27003;SDS011;14546;47.590;19.022;2023-06-24T02:35:54;27.27;;;5.68;;
27003;SDS011;14546;47.590;19.022;2023-06-24T02:38:20;7.13;;;4.80;;
27003;SDS011;14546;47.590;19.022;2023-06-24T02:40:46;8.65;;;4.55;;
27003;SDS011;14546;47.590;19.022;2023-06-24T02:43:14;8.98;;;4.32;;
27003;SDS011;14546;47.590;19.022;2023-06-24T02:45:40;9.85;;;4.97;;
27003;SDS011;14546;47.590;19.022;2023-06-24T02:48:06;7.47;;;4.82;;
27003;SDS011;14546;47.590;19.022;2023-06-24T02:50:34;8.80;;;4.93;;
27003;SDS011;14546;47.590;19.022;2023-06-24T02:53:01;11.43;;;5.07;;
27003;SDS011;14546;47.590;19.022;2023-06-24T02:55:27;12.10;;;5.07;;
27003;SDS011;14546;47.590;19.022;2023-06-24T02:57:55;9.70;;;5.38;;
27003;SDS011;14546;47.590;19.022;2023-06-24T03:00:22;9.40;;;5.65;;
27003;SDS011;14546;47.590;19.022;2023-06-24T03:02:48;12.85;;;5.75;;
27003;SDS011;14546;47.590;19.022;2023-06-24T03:05:14;9.23;;;5.47;;
27003;SDS011;14546;47.590;19.022;2023-06-24T03:07:41;9.38;;;4.72;;
27003;SDS011;14546;47.590;19.022;2023-06-24T03:10:07;8.52;;;5.25;;
27003;SDS011;14546;47.590;19.022;2023-06-24T03:12:35;10.15;;;5.32;;
27003;SDS011;14546;47.590;19.022;2023-06-24T03:15:01;6.60;;;5.32;;
27003;SDS011;14546;47.590;19.022;2023-06-24T03:17:27;7.72;;;4.97;;
27003;SDS011;14546;47.590;19.022;2023-06-24T03:19:54;8.40;;;5.40;;
27003;SDS011;14546;47.590;19.022;2023-06-24T03:22:21;9.13;;;5.53;;
27003;SDS011;14546;47.590;19.022;2023-06-24T03:24:47;12.15;;;5.32;;
27003;SDS011;14546;47.590;19.022;2023-06-24T03:27:14;8.70;;;5.43;;
27003;SDS011;14546;47.590;19.022;2023-06-24T03:29:39;11.25;;;5.60;;
27003;SDS011;14546;47.590;19.022;2023-06-24T03:32:05;8.85;;;5.60;;
27003;SDS011;14546;47.590;19.022;2023-06-24T03:34:31;9.02;;;4.65;;
27003;SDS011;14546;47.590;19.022;2023-06-24T03:36:56;8.82;;;5.47;;
27003;SDS011;14546;47.590;19.022;2023-06-24T03:39:22;14.05;;;6.20;;
27003;SDS011;14546;47.590;19.022;2023-06-24T03:41:48;15.32;;;5.13;;
27003;SDS011;14546;47.590;19.022;2023-06-24T03:44:13;14.27;;;5.25;;
27003;SDS011;14546;47.590;19.022;2023-06-24T03:46:39;14.02;;;5.82;;
27003;SDS011;14546;47.590;19.022;2023-06-24T03:49:05;12.90;;;5.25;;
27003;SDS011;14546;47.590;19.022;2023-06-24T03:51:31;13.15;;;6.25;;
27003;SDS011;14546;47.590;19.022;2023-06-24T03:53:57;11.20;;;5.78;;
27003;SDS011;14546;47.590;19.022;2023-06-24T03:56:22;8.52;;;5.28;;
27003;SDS011;14546;47.590;19.022;2023-06-24T03:58:48;7.40;;;4.60;;
27003;SDS011;14546;47.590;19.022;2023-06-24T04:01:14;7.28;;;4.47;;
27003;SDS011;14546;47.590;19.022;2023-06-24T04:03:39;8.73;;;4.30;;
27003;SDS011;14546;47.590;19.022;2023-06-24T04:06:05;7.13;;;4.70;;
27003;SDS011;14546;47.590;19.022;2023-06-24T04:08:31;5.93;;;4.30;;
27003;SDS011;14546;47.590;19.022;2023-06-24T04:10:57;10.07;;;4.38;;
27003;SDS011;14546;47.590;19.022;2023-06-24T04:13:25;10.95;;;4.55;;
27003;SDS011;14546;47.590;19.022;2023-06-24T04:15:51;9.55;;;4.85;;
27003;SDS011;14546;47.590;19.022;2023-06-24T04:18:17;6.65;;;4.18;;
27003;SDS011;14546;47.590;19.022;2023-06-24T04:20:43;8.55;;;4.60;;
27003;SDS011;14546;47.590;19.022;2023-06-24T04:23:09;6.03;;;4.05;;
27003;SDS011;14546;47.590;19.022;2023-06-24T04:25:36;5.93;;;3.40;;
27003;SDS011;14546;47.590;19.022;2023-06-24T04:28:02;6.25;;;3.13;;
27003;SDS011;14546;47.590;19.022;2023-06-24T04:30:29;7.10;;;3.00;;
27003;SDS011;14546;47.590;19.022;2023-06-24T04:32:55;5.88;;;3.03;;
27003;SDS011;14546;47.590;19.022;2023-06-24T04:35:21;10.02;;;3.00;;
27003;SDS011;14546;47.590;19.022;2023-06-24T04:37:47;8.05;;;3.00;;
27003;SDS011;14546;47.590;19.022;2023-06-24T04:40:15;9.23;;;3.00;;
27003;SDS011;14546;47.590;19.022;2023-06-24T04:42:44;4.32;;;2.97;;
27003;SDS011;14546;47.590;19.022;2023-06-24T04:45:10;8.48;;;3.00;;
27003;SDS011;14546;47.590;19.022;2023-06-24T04:47:36;7.68;;;2.53;;
27003;SDS011;14546;47.590;19.022;2023-06-24T04:50:02;6.50;;;2.63;;
27003;SDS011;14546;47.590;19.022;2023-06-24T04:52:28;10.93;;;2.72;;
27003;SDS011;14546;47.590;19.022;2023-06-24T04:54:54;12.18;;;2.28;;
27003;SDS011;14546;47.590;19.022;2023-06-24T04:57:23;6.18;;;2.63;;
27003;SDS011;14546;47.590;19.022;2023-06-24T04:59:53;4.57;;;2.42;;
27003;SDS011;14546;47.590;19.022;2023-06-24T05:02:19;4.60;;;2.33;;
27003;SDS011;14546;47.590;19.022;2023-06-24T05:04:44;5.72;;;2.10;;
27003;SDS011;14546;47.590;19.022;2023-06-24T05:07:10;3.65;;;2.30;;
27003;SDS011;14546;47.590;19.022;2023-06-24T05:09:36;6.68;;;2.50;;
27003;SDS011;14546;47.590;19.022;2023-06-24T05:12:05;6.07;;;2.42;;
27003;SDS011;14546;47.590;19.022;2023-06-24T05:14:34;4.60;;;2.15;;
27003;SDS011;14546;47.590;19.022;2023-06-24T05:17:00;8.18;;;2.28;;
27003;SDS011;14546;47.590;19.022;2023-06-24T05:19:26;2.47;;;1.80;;
27003;SDS011;14546;47.590;19.022;2023-06-24T05:21:51;5.25;;;2.30;;
27003;SDS011;14546;47.590;19.022;2023-06-24T05:24:17;4.40;;;1.80;;
27003;SDS011;14546;47.590;19.022;2023-06-24T05:26:44;13.32;;;2.53;;
27003;SDS011;14546;47.590;19.022;2023-06-24T05:29:11;3.55;;;1.63;;
27003;SDS011;14546;47.590;19.022;2023-06-24T05:31:37;4.70;;;1.70;;
27003;SDS011;14546;47.590;19.022;2023-06-24T05:34:02;6.15;;;1.73;;
27003;SDS011;14546;47.590;19.022;2023-06-24T05:36:28;2.83;;;1.60;;
27003;SDS011;14546;47.590;19.022;2023-06-24T05:38:54;4.75;;;1.55;;
27003;SDS011;14546;47.590;19.022;2023-06-24T05:41:20;6.10;;;1.35;;
27003;SDS011;14546;47.590;19.022;2023-06-24T05:43:46;7.20;;;2.20;;
27003;SDS011;14546;47.590;19.022;2023-06-24T05:46:12;4.25;;;1.20;;
27003;SDS011;14546;47.590;19.022;2023-06-24T05:48:38;2.75;;;1.48;;
27003;SDS011;14546;47.590;19.022;2023-06-24T05:51:04;2.15;;;1.40;;
27003;SDS011;14546;47.590;19.022;2023-06-24T05:53:30;4.30;;;1.20;;
27003;SDS011;14546;47.590;19.022;2023-06-24T05:55:56;9.95;;;2.30;;
27003;SDS011;14546;47.590;19.022;2023-06-24T05:58:22;5.43;;;1.10;;
27003;SDS011;14546;47.590;19.022;2023-06-24T06:00:48;1.70;;;1.10;;
27003;SDS011;14546;47.590;19.022;2023-06-24T06:03:14;2.55;;;1.10;;
27003;SDS011;14546;47.590;19.022;2023-06-24T06:05:40;2.80;;;1.30;;
27003;SDS011;14546;47.590;19.022;2023-06-24T06:08:06;5.43;;;1.20;;
27003;SDS011;14546;47.590;19.022;2023-06-24T06:10:32;2.80;;;1.50;;
27003;SDS011;14546;47.590;19.022;2023-06-24T06:12:58;2.85;;;1.52;;
27003;SDS011;14546;47.590;19.022;2023-06-24T06:15:24;1.60;;;1.00;;
27003;SDS011;14546;47.590;19.022;2023-06-24T06:17:50;2.50;;;1.10;;
27003;SDS011;14546;47.590;19.022;2023-06-24T06:20:16;2.88;;;1.20;;
27003;SDS011;14546;47.590;19.022;2023-06-24T06:22:43;4.25;;;1.20;;
27003;SDS011;14546;47.590;19.022;2023-06-24T06:25:09;2.20;;;1.05;;
27003;SDS011;14546;47.590;19.022;2023-06-24T06:27:35;2.05;;;1.00;;
27003;SDS011;14546;47.590;19.022;2023-06-24T06:30:03;2.53;;;1.20;;
27003;SDS011;14546;47.590;19.022;2023-06-24T06:32:29;3.03;;;1.00;;
27003;SDS011;14546;47.590;19.022;2023-06-24T06:34:55;2.80;;;1.30;;
27003;SDS011;14546;47.590;19.022;2023-06-24T06:37:21;2.45;;;1.13;;
27003;SDS011;14546;47.590;19.022;2023-06-24T06:39:47;1.67;;;1.10;;
27003;SDS011;14546;47.590;19.022;2023-06-24T06:42:13;3.40;;;1.23;;
27003;SDS011;14546;47.590;19.022;2023-06-24T06:44:39;2.28;;;1.20;;
27003;SDS011;14546;47.590;19.022;2023-06-24T06:47:05;6.28;;;1.38;;
27003;SDS011;14546;47.590;19.022;2023-06-24T06:49:32;4.10;;;1.52;;
27003;SDS011;14546;47.590;19.022;2023-06-24T06:51:58;4.75;;;1.92;;
27003;SDS011;14546;47.590;19.022;2023-06-24T06:54:24;4.78;;;1.90;;
27003;SDS011;14546;47.590;19.022;2023-06-24T06:56:50;6.47;;;1.50;;
27003;SDS011;14546;47.590;19.022;2023-06-24T06:59:16;7.97;;;1.70;;
27003;SDS011;14546;47.590;19.022;2023-06-24T07:01:42;4.70;;;1.30;;
27003;SDS011;14546;47.590;19.022;2023-06-24T07:04:08;5.00;;;1.25;;
27003;SDS011;14546;47.590;19.022;2023-06-24T07:06:34;1.98;;;1.15;;
27003;SDS011;14546;47.590;19.022;2023-06-24T07:08:59;3.67;;;1.20;;
27003;SDS011;14546;47.590;19.022;2023-06-24T07:11:25;1.98;;;1.20;;
27003;SDS011;14546;47.590;19.022;2023-06-24T07:13:51;4.68;;;1.20;;
27003;SDS011;14546;47.590;19.022;2023-06-24T07:16:17;1.40;;;1.10;;
27003;SDS011;14546;47.590;19.022;2023-06-24T07:18:43;14.70;;;1.80;;
27003;SDS011;14546;47.590;19.022;2023-06-24T07:21:10;3.10;;;1.50;;
27003;SDS011;14546;47.590;19.022;2023-06-24T07:23:36;4.43;;;2.08;;
27003;SDS011;14546;47.590;19.022;2023-06-24T07:26:02;2.65;;;1.50;;
27003;SDS011;14546;47.590;19.022;2023-06-24T07:28:28;3.85;;;1.52;;
27003;SDS011;14546;47.590;19.022;2023-06-24T07:30:54;3.15;;;1.63;;
27003;SDS011;14546;47.590;19.022;2023-06-24T07:33:20;3.83;;;1.40;;
27003;SDS011;14546;47.590;19.022;2023-06-24T07:35:46;2.25;;;1.20;;
27003;SDS011;14546;47.590;19.022;2023-06-24T07:38:12;4.20;;;1.10;;
27003;SDS011;14546;47.590;19.022;2023-06-24T07:40:38;1.17;;;1.08;;
27003;SDS011;14546;47.590;19.022;2023-06-24T07:43:04;1.73;;;1.10;;
27003;SDS011;14546;47.590;19.022;2023-06-24T07:45:30;6.22;;;1.38;;
27003;SDS011;14546;47.590;19.022;2023-06-24T07:47:56;5.03;;;1.52;;
27003;SDS011;14546;47.590;19.022;2023-06-24T07:50:22;2.47;;;1.52;;
27003;SDS011;14546;47.590;19.022;2023-06-24T07:52:48;4.70;;;1.50;;
27003;SDS011;14546;47.590;19.022;2023-06-24T07:55:14;2.78;;;1.98;;
27003;SDS011;14546;47.590;19.022;2023-06-24T07:57:44;3.30;;;1.33;;
27003;SDS011;14546;47.590;19.022;2023-06-24T08:00:10;5.07;;;1.30;;
27003;SDS011;14546;47.590;19.022;2023-06-24T08:02:37;2.67;;;1.30;;
27003;SDS011;14546;47.590;19.022;2023-06-24T08:05:03;1.85;;;1.42;;
27003;SDS011;14546;47.590;19.022;2023-06-24T08:07:29;2.20;;;1.52;;
27003;SDS011;14546;47.590;19.022;2023-06-24T08:09:55;1.83;;;1.40;;
27003;SDS011;14546;47.590;19.022;2023-06-24T08:12:21;2.00;;;1.55;;
27003;SDS011;14546;47.590;19.022;2023-06-24T08:14:47;4.88;;;1.27;;
27003;SDS011;14546;47.590;19.022;2023-06-24T08:17:13;6.22;;;1.60;;
27003;SDS011;14546;47.590;19.022;2023-06-24T08:19:39;2.97;;;1.40;;
27003;SDS011;14546;47.590;19.022;2023-06-24T08:22:05;1.90;;;1.50;;
27003;SDS011;14546;47.590;19.022;2023-06-24T08:24:31;4.47;;;1.40;;
27003;SDS011;14546;47.590;19.022;2023-06-24T08:26:57;2.03;;;1.48;;
27003;SDS011;14546;47.590;19.022;2023-06-24T08:29:23;1.75;;;1.65;;
27003;SDS011;14546;47.590;19.022;2023-06-24T08:31:49;8.57;;;2.08;;
27003;SDS011;14546;47.590;19.022;2023-06-24T08:34:15;1.98;;;1.48;;
27003;SDS011;14546;47.590;19.022;2023-06-24T08:36:41;2.35;;;1.40;;
27003;SDS011;14546;47.590;19.022;2023-06-24T08:39:07;4.20;;;1.85;;
27003;SDS011;14546;47.590;19.022;2023-06-24T08:41:33;4.22;;;1.90;;
27003;SDS011;14546;47.590;19.022;2023-06-24T08:43:59;5.78;;;1.73;;
27003;SDS011;14546;47.590;19.022;2023-06-24T08:46:25;7.03;;;2.28;;
27003;SDS011;14546;47.590;19.022;2023-06-24T08:48:59;4.80;;;1.83;;
27003;SDS011;14546;47.590;19.022;2023-06-24T08:51:25;2.50;;;1.77;;
27003;SDS011;14546;47.590;19.022;2023-06-24T08:53:53;2.03;;;1.45;;
27003;SDS011;14546;47.590;19.022;2023-06-24T08:56:19;5.25;;;1.85;;
27003;SDS011;14546;47.590;19.022;2023-06-24T08:58:45;2.38;;;1.73;;
27003;SDS011;14546;47.590;19.022;2023-06-24T09:01:11;2.00;;;1.70;;
27003;SDS011;14546;47.590;19.022;2023-06-24T09:03:38;3.58;;;1.38;;
27003;SDS011;14546;47.590;19.022;2023-06-24T09:06:04;1.95;;;1.45;;
27003;SDS011;14546;47.590;19.022;2023-06-24T09:08:30;4.53;;;2.10;;
27003;SDS011;14546;47.590;19.022;2023-06-24T09:10:56;2.17;;;1.50;;
27003;SDS011;14546;47.590;19.022;2023-06-24T09:13:27;4.72;;;1.30;;
27003;SDS011;14546;47.590;19.022;2023-06-24T09:15:59;2.35;;;1.88;;
27003;SDS011;14546;47.590;19.022;2023-06-24T09:18:31;4.18;;;1.90;;
27003;SDS011;14546;47.590;19.022;2023-06-24T09:20:57;3.28;;;1.55;;
27003;SDS011;14546;47.590;19.022;2023-06-24T09:23:25;2.83;;;1.60;;
27003;SDS011;14546;47.590;19.022;2023-06-24T09:25:55;6.53;;;1.70;;
27003;SDS011;14546;47.590;19.022;2023-06-24T09:28:25;3.75;;;1.90;;
27003;SDS011;14546;47.590;19.022;2023-06-24T09:31:07;6.15;;;2.10;;
27003;SDS011;14546;47.590;19.022;2023-06-24T09:33:34;5.47;;;1.93;;
27003;SDS011;14546;47.590;19.022;2023-06-24T09:36:03;6.72;;;2.08;;
27003;SDS011;14546;47.590;19.022;2023-06-24T09:38:34;1.67;;;1.52;;
27003;SDS011;14546;47.590;19.022;2023-06-24T09:41:04;1.83;;;1.38;;
27003;SDS011;14546;47.590;19.022;2023-06-24T09:43:30;2.05;;;1.58;;
27003;SDS011;14546;47.590;19.022;2023-06-24T09:46:00;2.88;;;1.80;;
27003;SDS011;14546;47.590;19.022;2023-06-24T09:48:26;2.17;;;1.70;;
27003;SDS011;14546;47.590;19.022;2023-06-24T09:50:53;3.58;;;1.67;;
27003;SDS011;14546;47.590;19.022;2023-06-24T09:53:19;1.65;;;1.42;;
27003;SDS011;14546;47.590;19.022;2023-06-24T09:55:46;2.80;;;1.30;;
27003;SDS011;14546;47.590;19.022;2023-06-24T09:58:12;3.97;;;1.40;;
27003;SDS011;14546;47.590;19.022;2023-06-24T10:00:39;3.38;;;1.40;;
27003;SDS011;14546;47.590;19.022;2023-06-24T10:03:05;3.70;;;1.52;;
27003;SDS011;14546;47.590;19.022;2023-06-24T10:05:31;3.13;;;1.67;;
27003;SDS011;14546;47.590;19.022;2023-06-24T10:07:57;7.70;;;1.85;;
27003;SDS011;14546;47.590;19.022;2023-06-24T10:10:23;7.15;;;1.65;;
27003;SDS011;14546;47.590;19.022;2023-06-24T10:12:49;2.53;;;1.27;;
27003;SDS011;14546;47.590;19.022;2023-06-24T10:15:15;2.28;;;1.13;;
27003;SDS011;14546;47.590;19.022;2023-06-24T10:17:41;3.97;;;1.58;;
27003;SDS011;14546;47.590;19.022;2023-06-24T10:20:07;3.05;;;1.38;;
27003;SDS011;14546;47.590;19.022;2023-06-24T10:22:33;2.88;;;1.30;;
27003;SDS011;14546;47.590;19.022;2023-06-24T10:25:01;5.05;;;1.30;;
27003;SDS011;14546;47.590;19.022;2023-06-24T10:27:27;2.17;;;1.50;;
27003;SDS011;14546;47.590;19.022;2023-06-24T10:29:57;3.20;;;1.70;;
27003;SDS011;14546;47.590;19.022;2023-06-24T10:32:27;2.55;;;1.50;;
27003;SDS011;14546;47.590;19.022;2023-06-24T10:35:04;2.30;;;1.30;;
27003;SDS011;14546;47.590;19.022;2023-06-24T10:37:32;2.95;;;1.48;;
27003;SDS011;14546;47.590;19.022;2023-06-24T10:39:58;1.73;;;1.35;;
27003;SDS011;14546;47.590;19.022;2023-06-24T10:48:08;2.10;;;1.40;;
27003;SDS011;14546;47.590;19.022;2023-06-24T10:52:54;1.50;;;1.40;;
27003;SDS011;14546;47.590;19.022;2023-06-24T10:55:24;1.48;;;1.38;;
27003;SDS011;14546;47.590;19.022;2023-06-24T10:57:51;1.42;;;1.00;;
27003;SDS011;14546;47.590;19.022;2023-06-24T11:00:17;1.20;;;1.00;;
27003;SDS011;14546;47.590;19.022;2023-06-24T11:02:43;2.72;;;1.13;;
27003;SDS011;14546;47.590;19.022;2023-06-24T11:05:10;4.45;;;1.50;;
27003;SDS011;14546;47.590;19.022;2023-06-24T11:07:37;3.80;;;1.40;;
27003;SDS011;14546;47.590;19.022;2023-06-24T11:10:04;2.05;;;1.48;;
27003;SDS011;14546;47.590;19.022;2023-06-24T11:12:40;3.92;;;1.17;;
27003;SDS011;14546;47.590;19.022;2023-06-24T11:15:06;2.85;;;1.38;;
27003;SDS011;14546;47.590;19.022;2023-06-24T11:17:33;6.50;;;1.58;;
27003;SDS011;14546;47.590;19.022;2023-06-24T11:20:00;1.90;;;1.13;;
27003;SDS011;14546;47.590;19.022;2023-06-24T11:22:26;1.45;;;1.30;;
27003;SDS011;14546;47.590;19.022;2023-06-24T11:24:52;2.17;;;1.35;;
27003;SDS011;14546;47.590;19.022;2023-06-24T11:27:29;1.65;;;1.33;;
27003;SDS011;14546;47.590;19.022;2023-06-24T11:29:57;4.70;;;1.42;;
27003;SDS011;14546;47.590;19.022;2023-06-24T11:32:25;2.28;;;1.05;;
27003;SDS011;14546;47.590;19.022;2023-06-24T11:34:51;3.75;;;1.08;;
27003;SDS011;14546;47.590;19.022;2023-06-24T11:37:17;2.95;;;1.38;;
27003;SDS011;14546;47.590;19.022;2023-06-24T11:39:43;3.60;;;1.48;;
27003;SDS011;14546;47.590;19.022;2023-06-24T11:42:10;4.50;;;1.30;;
27003;SDS011;14546;47.590;19.022;2023-06-24T11:44:45;1.27;;;1.13;;
27003;SDS011;14546;47.590;19.022;2023-06-24T11:47:11;3.67;;;1.20;;
27003;SDS011;14546;47.590;19.022;2023-06-24T11:52:15;1.20;;;1.08;;
27003;SDS011;14546;47.590;19.022;2023-06-24T11:54:41;2.60;;;1.48;;
27003;SDS011;14546;47.590;19.022;2023-06-24T11:57:10;3.63;;;1.10;;
27003;SDS011;14546;47.590;19.022;2023-06-24T11:59:37;1.08;;;0.93;;
27003;SDS011;14546;47.590;19.022;2023-06-24T12:02:03;4.25;;;1.73;;
27003;SDS011;14546;47.590;19.022;2023-06-24T12:04:30;6.53;;;1.17;;
27003;SDS011;14546;47.590;19.022;2023-06-24T12:06:56;4.70;;;1.20;;
27003;SDS011;14546;47.590;19.022;2023-06-24T12:09:23;1.52;;;1.10;;
27003;SDS011;14546;47.590;19.022;2023-06-24T12:11:49;4.22;;;1.30;;
27003;SDS011;14546;47.590;19.022;2023-06-24T12:14:15;2.63;;;1.17;;
27003;SDS011;14546;47.590;19.022;2023-06-24T12:16:41;3.22;;;1.33;;
27003;SDS011;14546;47.590;19.022;2023-06-24T12:19:07;2.75;;;1.20;;
27003;SDS011;14546;47.590;19.022;2023-06-24T12:21:34;3.15;;;1.20;;
27003;SDS011;14546;47.590;19.022;2023-06-24T12:24:00;2.50;;;0.88;;
27003;SDS011;14546;47.590;19.022;2023-06-24T12:26:26;3.75;;;0.88;;
27003;SDS011;14546;47.590;19.022;2023-06-24T12:28:55;1.60;;;1.20;;
27003;SDS011;14546;47.590;19.022;2023-06-24T12:31:22;1.50;;;1.00;;
27003;SDS011;14546;47.590;19.022;2023-06-24T12:33:48;1.25;;;1.00;;
27003;SDS011;14546;47.590;19.022;2023-06-24T12:36:14;3.63;;;1.42;;
27003;SDS011;14546;47.590;19.022;2023-06-24T12:38:40;1.30;;;1.20;;
27003;SDS011;14546;47.590;19.022;2023-06-24T12:41:06;2.60;;;1.20;;
27003;SDS011;14546;47.590;19.022;2023-06-24T12:43:32;1.13;;;1.02;;
27003;SDS011;14546;47.590;19.022;2023-06-24T12:45:58;4.25;;;1.27;;
27003;SDS011;14546;47.590;19.022;2023-06-24T12:48:24;1.63;;;1.20;;
27003;SDS011;14546;47.590;19.022;2023-06-24T12:50:51;1.90;;;1.42;;
27003;SDS011;14546;47.590;19.022;2023-06-24T12:53:20;2.30;;;1.38;;
27003;SDS011;14546;47.590;19.022;2023-06-24T12:55:46;1.50;;;1.10;;
27003;SDS011;14546;47.590;19.022;2023-06-24T12:58:22;3.10;;;1.27;;
27003;SDS011;14546;47.590;19.022;2023-06-24T13:00:50;3.25;;;1.20;;
27003;SDS011;14546;47.590;19.022;2023-06-24T13:03:16;3.03;;;1.13;;
27003;SDS011;14546;47.590;19.022;2023-06-24T13:05:42;5.78;;;1.48;;
27003;SDS011;14546;47.590;19.022;2023-06-24T13:08:08;1.95;;;1.30;;
27003;SDS011;14546;47.590;19.022;2023-06-24T13:10:36;5.75;;;1.85;;
27003;SDS011;14546;47.590;19.022;2023-06-24T13:13:02;3.88;;;1.50;;
27003;SDS011;14546;47.590;19.022;2023-06-24T13:15:28;7.63;;;1.65;;
27003;SDS011;14546;47.590;19.022;2023-06-24T13:17:54;2.75;;;2.15;;
27003;SDS011;14546;47.590;19.022;2023-06-24T13:20:20;2.60;;;1.42;;
27003;SDS011;14546;47.590;19.022;2023-06-24T13:22:46;5.72;;;1.63;;
27003;SDS011;14546;47.590;19.022;2023-06-24T13:25:12;2.67;;;1.50;;
27003;SDS011;14546;47.590;19.022;2023-06-24T13:27:38;6.00;;;1.70;;
27003;SDS011;14546;47.590;19.022;2023-06-24T13:30:04;6.80;;;2.00;;
27003;SDS011;14546;47.590;19.022;2023-06-24T13:32:30;3.33;;;1.80;;
27003;SDS011;14546;47.590;19.022;2023-06-24T13:34:56;10.20;;;1.90;;
27003;SDS011;14546;47.590;19.022;2023-06-24T13:37:22;2.33;;;1.50;;
27003;SDS011;14546;47.590;19.022;2023-06-24T13:39:49;4.57;;;1.70;;
27003;SDS011;14546;47.590;19.022;2023-06-24T13:42:15;2.53;;;1.60;;
27003;SDS011;14546;47.590;19.022;2023-06-24T13:44:41;2.40;;;1.60;;
27003;SDS011;14546;47.590;19.022;2023-06-24T13:47:07;1.88;;;1.73;;
27003;SDS011;14546;47.590;19.022;2023-06-24T13:49:33;2.60;;;1.70;;
27003;SDS011;14546;47.590;19.022;2023-06-24T13:51:59;6.15;;;1.75;;
27003;SDS011;14546;47.590;19.022;2023-06-24T13:54:25;2.45;;;1.88;;
27003;SDS011;14546;47.590;19.022;2023-06-24T13:56:56;6.90;;;1.90;;
27003;SDS011;14546;47.590;19.022;2023-06-24T13:59:22;1.85;;;1.70;;
27003;SDS011;14546;47.590;19.022;2023-06-24T14:01:48;3.08;;;1.92;;
27003;SDS011;14546;47.590;19.022;2023-06-24T14:04:14;1.75;;;1.60;;
27003;SDS011;14546;47.590;19.022;2023-06-24T14:06:40;3.22;;;2.20;;
27003;SDS011;14546;47.590;19.022;2023-06-24T14:09:08;6.75;;;1.90;;
27003;SDS011;14546;47.590;19.022;2023-06-24T14:11:34;3.33;;;2.15;;
27003;SDS011;14546;47.590;19.022;2023-06-24T14:14:00;2.40;;;2.03;;
27003;SDS011;14546;47.590;19.022;2023-06-24T14:16:26;2.63;;;2.05;;
27003;SDS011;14546;47.590;19.022;2023-06-24T14:18:52;5.63;;;2.20;;
27003;SDS011;14546;47.590;19.022;2023-06-24T14:21:18;2.10;;;1.80;;
27003;SDS011;14546;47.590;19.022;2023-06-24T14:23:44;2.97;;;2.00;;
27003;SDS011;14546;47.590;19.022;2023-06-24T14:26:10;2.58;;;2.03;;
27003;SDS011;14546;47.590;19.022;2023-06-24T14:28:36;7.07;;;2.30;;
27003;SDS011;14546;47.590;19.022;2023-06-24T14:31:02;3.08;;;2.10;;
27003;SDS011;14546;47.590;19.022;2023-06-24T14:33:28;4.90;;;2.17;;
27003;SDS011;14546;47.590;19.022;2023-06-24T14:35:54;4.13;;;2.58;;
27003;SDS011;14546;47.590;19.022;2023-06-24T14:38:20;10.05;;;2.92;;
27003;SDS011;14546;47.590;19.022;2023-06-24T14:40:46;4.55;;;2.28;;
27003;SDS011;14546;47.590;19.022;2023-06-24T14:43:12;2.38;;;2.03;;
27003;SDS011;14546;47.590;19.022;2023-06-24T14:45:38;5.85;;;2.40;;
27003;SDS011;14546;47.590;19.022;2023-06-24T14:48:04;4.10;;;2.50;;